Terminal Aerodrome Forecast
Issued by NWS Sterling, VA

Current Version | Previous Version | Text Only | Print | Product List | Glossary Off
Versions: 1 2 3 4 5 6 7 8 9 10 11 12 13 14 15 16 17 18 19

000
FTUS41 KLWX 012140 AAA
TAFMRB
TAF AMD
KMRB 012140Z 0122/0218 VRB04KT P6SM VCTS BKN050CB
     FM012230 22006KT 3SM -SHRA VCTS SCT025 OVC040CB
     FM020100 36006KT 5SM -SHRA OVC015
     FM020600 36005KT 2SM -SHRA BR BKN008 OVC015
     FM021400 01006KT 6SM -SHRA OVC015
     FM021600 01006KT P6SM BKN015 OVC025=

USA.gov is the U.S. government's official web portal to all federal, state and local government web resources and services.